Time;durP1;ratioP1;P1;durP2;ratioP2;P2;SDS_P1;SDS_P2;PMS_P1;PMS_P2;Temp;Humidity;BMP_temperature;BMP_pressure;BME280_temperature;BME280_humidity;BME280_pressure;Samples;Min_cycle;Max_cycle;Signal;HPM_P1;HPM_P2
2022/07/01 00:02:08;;;;;;;0.85;0.80;;;15.30;80.40;;;;;;6308665;22;20007;-72
2022/07/01 00:04:34;;;;;;;1.20;0.70;;;15.30;80.30;;;;;;6283270;22;20021;-72
2022/07/01 00:07:00;;;;;;;3.05;1.10;;;15.40;80.40;;;;;;6336546;22;20357;-73
2022/07/01 00:09:26;;;;;;;1.02;0.85;;;15.30;80.50;;;;;;6336869;22;20007;-73
2022/07/01 00:11:52;;;;;;;0.75;0.75;;;15.30;80.50;;;;;;6336140;22;20064;-72
2022/07/01 00:14:18;;;;;;;0.70;0.70;;;15.30;80.50;;;;;;6336697;22;20007;-73
2022/07/01 00:16:44;;;;;;;1.98;0.90;;;15.30;80.50;;;;;;6309175;22;20491;-73
2022/07/01 00:19:10;;;;;;;0.95;0.70;;;15.30;80.50;;;;;;6308948;22;20006;-73
2022/07/01 00:21:36;;;;;;;0.90;0.90;;;15.30;80.50;;;;;;6283702;22;20304;-74
2022/07/01 00:24:02;;;;;;;0.75;0.75;;;15.30;80.70;;;;;;6307836;22;20014;-72
2022/07/01 00:26:27;;;;;;;1.05;0.95;;;15.20;80.60;;;;;;6337062;22;20003;-73
2022/07/01 00:28:53;;;;;;;1.45;1.20;;;15.30;80.70;;;;;;6336356;22;20389;-73
2022/07/01 00:31:19;;;;;;;1.20;1.05;;;15.20;80.70;;;;;;6282930;22;20003;-72
2022/07/01 00:33:45;;;;;;;1.48;1.25;;;15.30;80.80;;;;;;6309187;22;20056;-73
2022/07/01 00:36:10;;;;;;;1.23;1.08;;;15.20;80.70;;;;;;6336826;22;20002;-73
2022/07/01 00:38:36;;;;;;;0.70;0.70;;;15.10;80.80;;;;;;6308828;22;20002;-72
2022/07/01 00:41:02;;;;;;;1.23;1.13;;;15.10;80.90;;;;;;6336470;22;20007;-72
2022/07/01 00:43:34;;;;;;;1.30;1.13;;;15.20;80.90;;;;;;6336353;22;20015;-73
2022/07/01 00:46:00;;;;;;;1.17;1.00;;;15.20;81.00;;;;;;6308970;22;20093;-73
2022/07/01 00:48:26;;;;;;;1.10;1.00;;;15.10;81.00;;;;;;6309508;22;20030;-73
2022/07/01 00:50:51;;;;;;;1.17;1.00;;;15.10;81.00;;;;;;6336086;22;20011;-73
2022/07/01 00:53:17;;;;;;;1.00;0.93;;;15.10;80.90;;;;;;6308620;22;20053;-73
2022/07/01 00:55:43;;;;;;;1.52;1.13;;;15.20;81.00;;;;;;6336043;22;20030;-73
2022/07/01 00:58:09;;;;;;;2.03;1.27;;;15.10;81.00;;;;;;6308798;22;20018;-72
2022/07/01 01:00:37;;;;;;;1.20;1.00;;;15.10;81.00;;;;;;6335867;22;20075;-73
2022/07/01 01:03:06;;;;;;;1.15;1.05;;;15.10;81.00;;;;;;6283103;22;20011;-73
2022/07/01 01:05:33;;;;;;;1.20;1.00;;;15.10;81.00;;;;;;6308716;22;20060;-73
2022/07/01 01:07:59;;;;;;;1.92;1.40;;;15.20;81.10;;;;;;6336691;22;20063;-73
2022/07/01 01:10:27;;;;;;;2.58;1.60;;;15.10;81.10;;;;;;6336465;22;20022;-73
2022/07/01 01:12:55;;;;;;;2.33;1.60;;;15.10;81.10;;;;;;6307603;22;20086;-73
2022/07/01 01:15:21;;;;;;;3.08;2.03;;;15.10;81.10;;;;;;6336240;22;20022;-73
2022/07/01 01:17:47;;;;;;;2.20;1.58;;;15.10;81.20;;;;;;6336696;22;20432;-73
2022/07/01 01:20:16;;;;;;;3.03;1.85;;;15.00;81.20;;;;;;6336415;22;20046;-73
2022/07/01 01:22:44;;;;;;;2.92;2.00;;;15.00;81.20;;;;;;6309131;22;20011;-73
2022/07/01 01:25:10;;;;;;;3.72;2.40;;;15.00;81.20;;;;;;6307366;22;19999;-73
2022/07/01 01:27:37;;;;;;;3.97;2.47;;;15.00;81.30;;;;;;6336143;22;20013;-73
2022/07/01 01:30:05;;;;;;;4.47;2.88;;;15.00;81.40;;;;;;6305067;22;20061;-73
2022/07/01 01:32:31;;;;;;;4.25;2.83;;;14.90;81.50;;;;;;6308520;22;20002;-72
2022/07/01 01:34:57;;;;;;;3.45;2.38;;;14.90;81.50;;;;;;6336122;22;20030;-72
2022/07/01 01:37:23;;;;;;;3.83;2.35;;;14.90;81.50;;;;;;6308310;22;20003;-72
2022/07/01 01:39:48;;;;;;;3.67;2.42;;;14.90;81.60;;;;;;6309354;22;20003;-72
2022/07/01 01:42:14;;;;;;;3.65;2.47;;;14.80;81.50;;;;;;6335957;22;20018;-73
2022/07/01 01:44:40;;;;;;;4.53;2.70;;;14.80;82.10;;;;;;6336838;22;20003;-72
2022/07/01 01:47:06;;;;;;;3.67;2.65;;;14.90;81.60;;;;;;6308733;22;20453;-73
2022/07/01 01:49:32;;;;;;;4.35;2.95;;;14.90;81.60;;;;;;6336148;22;20013;-73
2022/07/01 01:51:59;;;;;;;4.28;2.67;;;14.80;81.50;;;;;;6335678;22;20007;-73
2022/07/01 01:54:26;;;;;;;3.85;2.58;;;14.80;81.50;;;;;;6308492;22;20342;-72
2022/07/01 01:56:52;;;;;;;3.65;2.45;;;14.80;81.50;;;;;;6308500;22;20086;-73
2022/07/01 01:59:18;;;;;;;3.63;2.60;;;14.80;81.60;;;;;;6308838;22;20496;-73
2022/07/01 02:01:46;;;;;;;3.65;2.30;;;14.80;81.60;;;;;;6335595;22;20006;-72
2022/07/01 02:04:12;;;;;;;3.97;2.50;;;14.80;81.60;;;;;;6336222;22;20079;-72
2022/07/01 02:06:40;;;;;;;3.65;2.40;;;14.80;81.60;;;;;;6336160;22;19999;-72
2022/07/01 02:09:08;;;;;;;3.33;2.10;;;14.80;81.60;;;;;;6309012;22;20433;-72
2022/07/01 02:11:37;;;;;;;4.00;2.70;;;14.90;81.70;;;;;;6282607;22;20338;-72
2022/07/01 02:14:04;;;;;;;4.40;2.88;;;14.80;81.60;;;;;;6335342;22;20060;-72
2022/07/01 02:16:29;;;;;;;3.63;2.50;;;14.80;81.60;;;;;;6335868;22;20006;-73
2022/07/01 02:18:57;;;;;;;3.58;2.53;;;14.80;81.60;;;;;;6336168;22;20085;-72
2022/07/01 02:21:24;;;;;;;3.97;2.85;;;14.90;81.70;;;;;;6308404;22;20011;-72
2022/07/01 02:23:52;;;;;;;3.95;2.33;;;14.90;81.70;;;;;;6282440;22;20010;-72
2022/07/01 02:26:19;;;;;;;2.75;1.90;;;14.90;81.70;;;;;;6336262;22;20061;-73
2022/07/01 02:28:45;;;;;;;3.03;2.22;;;14.90;81.70;;;;;;6306946;22;20017;-73
2022/07/01 02:31:10;;;;;;;3.97;2.47;;;14.90;81.70;;;;;;6306276;22;20038;-73
2022/07/01 02:33:36;;;;;;;3.22;2.10;;;14.90;81.70;;;;;;6308282;22;20386;-73
2022/07/01 02:36:02;;;;;;;3.80;2.47;;;14.90;81.80;;;;;;6306888;22;20019;-73
2022/07/01 02:38:28;;;;;;;2.47;1.90;;;14.90;81.80;;;;;;6306115;22;20014;-73
2022/07/01 02:40:53;;;;;;;2.88;1.95;;;14.80;81.80;;;;;;6308376;22;20015;-72
2022/07/01 02:43:19;;;;;;;4.20;2.33;;;14.80;81.80;;;;;;6335680;22;20018;-73
2022/07/01 02:45:45;;;;;;;3.45;2.40;;;14.80;81.80;;;;;;6335868;22;20085;-73
2022/07/01 02:48:11;;;;;;;3.95;2.78;;;14.80;81.90;;;;;;6282554;22;20018;-73
2022/07/01 02:50:37;;;;;;;2.67;1.90;;;14.80;82.00;;;;;;6335591;22;20080;-73
2022/07/01 02:53:03;;;;;;;3.65;2.50;;;14.80;81.90;;;;;;6307800;22;20373;-73
2022/07/01 02:55:29;;;;;;;3.70;2.50;;;14.80;82.00;;;;;;6336114;22;20470;-73
2022/07/01 02:57:55;;;;;;;3.33;2.17;;;14.70;81.90;;;;;;6308889;22;19999;-73
2022/07/01 03:00:22;;;;;;;4.07;2.67;;;14.70;81.90;;;;;;6336124;22;20827;-73
2022/07/01 03:02:48;;;;;;;3.58;2.35;;;14.70;82.10;;;;;;6335731;22;20010;-73
2022/07/01 03:05:14;;;;;;;3.35;2.25;;;14.70;82.20;;;;;;6306137;22;20035;-73
2022/07/01 03:07:40;;;;;;;4.53;2.75;;;14.60;82.20;;;;;;6335873;22;20003;-73
2022/07/01 03:10:08;;;;;;;3.60;2.65;;;14.60;82.30;;;;;;6335676;22;20076;-73
2022/07/01 03:12:35;;;;;;;3.22;2.30;;;14.50;82.30;;;;;;6335496;22;20363;-73
2022/07/01 03:15:05;;;;;;;3.75;2.40;;;14.60;82.40;;;;;;6308216;22;20007;-73
2022/07/01 03:17:33;;;;;;;3.15;2.15;;;14.60;82.40;;;;;;6336323;22;20007;-73
2022/07/01 03:19:59;;;;;;;3.25;2.05;;;14.60;82.40;;;;;;6308028;22;20002;-73
2022/07/01 03:22:29;;;;;;;3.20;2.10;;;14.50;82.40;;;;;;6282150;22;20445;-73
2022/07/01 03:24:55;;;;;;;3.60;2.13;;;14.50;82.50;;;;;;6307188;22;20011;-73
2022/07/01 03:27:22;;;;;;;2.72;1.85;;;14.50;82.50;;;;;;6336096;22;20148;-73
2022/07/01 03:29:48;;;;;;;3.58;2.35;;;14.50;82.50;;;;;;6335501;22;20003;-73
2022/07/01 03:32:14;;;;;;;2.92;2.05;;;14.40;82.50;;;;;;6308538;22;20007;-73
2022/07/01 03:34:42;;;;;;;3.05;2.05;;;14.40;82.50;;;;;;6335986;22;20056;-73
2022/07/01 03:37:10;;;;;;;4.15;2.45;;;14.40;82.50;;;;;;6335407;22;20431;-73
2022/07/01 03:39:37;;;;;;;3.60;2.30;;;14.40;82.50;;;;;;6336125;22;20014;-73
2022/07/01 03:42:04;;;;;;;3.50;2.30;;;14.40;82.50;;;;;;6335142;22;20013;-73
2022/07/01 03:44:31;;;;;;;3.10;2.13;;;14.40;82.60;;;;;;6282505;22;20324;-73
2022/07/01 03:46:57;;;;;;;3.75;2.42;;;14.30;82.50;;;;;;6307533;22;20019;-74
2022/07/01 03:49:23;;;;;;;3.03;2.10;;;14.30;82.60;;;;;;6308226;22;20063;-74
2022/07/01 03:51:49;;;;;;;3.72;2.47;;;14.40;82.70;;;;;;6335670;22;20431;-73
2022/07/01 03:56:53;;;;;;;4.55;2.75;;;14.30;82.60;;;;;;6331570;22;20022;-73
2022/07/01 03:59:19;;;;;;;4.70;2.90;;;14.30;82.60;;;;;;6308019;22;19999;-73
2022/07/01 04:01:44;;;;;;;5.40;2.80;;;14.30;82.60;;;;;;6335693;22;20026;-73
2022/07/01 04:04:10;;;;;;;4.15;2.60;;;14.40;82.60;;;;;;6335872;22;20386;-73
2022/07/01 04:06:37;;;;;;;3.33;2.50;;;14.40;82.60;;;;;;6306173;22;20007;-73
2022/07/01 04:09:03;;;;;;;4.97;3.10;;;14.30;82.50;;;;;;6307702;22;20378;-73
2022/07/01 04:11:29;;;;;;;5.32;3.15;;;14.40;82.50;;;;;;6282098;22;20683;-73
2022/07/01 04:13:55;;;;;;;3.67;2.35;;;14.40;82.50;;;;;;6335372;22;20445;-74
2022/07/01 04:16:22;;;;;;;3.65;2.58;;;14.40;83.10;;;;;;6335519;22;20007;-73
2022/07/01 04:18:49;;;;;;;4.07;2.50;;;14.40;82.40;;;;;;6335963;22;19999;-73
2022/07/01 04:23:56;;;;;;;4.55;3.13;;;14.40;82.40;;;;;;6335427;22;20018;-73
2022/07/01 04:26:23;;;;;;;5.38;3.20;;;14.40;82.30;;;;;;6305658;22;20014;-73
2022/07/01 04:28:50;;;;;;;4.15;2.83;;;14.40;82.40;;;;;;6307406;22;20006;-73
2022/07/01 04:31:16;;;;;;;4.65;2.85;;;14.40;82.40;;;;;;6308488;22;20042;-73
2022/07/01 04:33:42;;;;;;;5.00;3.03;;;14.50;82.40;;;;;;6307741;22;20465;-73
2022/07/01 04:36:09;;;;;;;5.22;2.90;;;14.50;82.30;;;;;;6306009;22;20038;-73
2022/07/01 04:38:35;;;;;;;4.47;2.90;;;14.50;82.30;;;;;;6309365;22;20013;-73
2022/07/01 04:43:36;;;;;;;4.40;2.80;;;14.50;82.30;;;;;;6311859;22;20014;-73
2022/07/01 04:46:02;;;;;;;4.20;2.45;;;14.50;82.30;;;;;;6308817;22;20335;-73
2022/07/01 04:48:28;;;;;;;4.07;2.53;;;14.60;82.40;;;;;;6337080;22;20006;-73
2022/07/01 04:50:54;;;;;;;4.47;2.85;;;14.60;82.40;;;;;;6337390;22;20487;-73
2022/07/01 04:53:19;;;;;;;4.03;2.70;;;14.60;82.30;;;;;;6309857;22;20003;-73
2022/07/01 04:55:45;;;;;;;4.53;2.60;;;14.60;82.30;;;;;;6283156;22;20003;-73
2022/07/01 04:58:13;;;;;;;4.50;2.80;;;14.60;82.30;;;;;;6337760;22;20010;-73
2022/07/01 05:00:38;;;;;;;4.57;2.83;;;14.60;82.30;;;;;;6337248;22;20003;-74
2022/07/01 05:03:04;;;;;;;3.88;2.55;;;14.60;82.40;;;;;;6283398;22;20029;-74
2022/07/01 05:05:30;;;;;;;3.67;2.25;;;14.50;82.30;;;;;;6281756;22;20003;-74
2022/07/01 05:07:56;;;;;;;4.32;2.47;;;14.60;82.40;;;;;;6309825;22;20007;-75
2022/07/01 05:10:23;;;;;;;3.50;2.45;;;14.60;82.40;;;;;;6337145;22;20042;-75
2022/07/01 05:12:49;;;;;;;5.25;2.70;;;14.70;82.40;;;;;;6336899;22;20064;-75
2022/07/01 05:15:15;;;;;;;4.32;2.78;;;14.70;82.40;;;;;;6308013;22;20007;-75
2022/07/01 05:23:00;;;;;;;4.80;2.73;;;14.70;82.30;;;;;;6336860;22;20038;-75
2022/07/01 05:25:26;;;;;;;5.05;3.10;;;14.70;82.20;;;;;;6336999;22;20007;-75
2022/07/01 05:27:52;;;;;;;4.38;2.75;;;14.60;82.10;;;;;;6336622;22;20011;-75
2022/07/01 05:30:18;;;;;;;4.25;2.70;;;14.70;82.30;;;;;;6336805;22;19998;-74
2022/07/01 05:32:43;;;;;;;4.95;3.00;;;14.70;82.40;;;;;;6283458;22;20019;-74
2022/07/01 05:35:09;;;;;;;4.38;2.58;;;14.70;82.40;;;;;;6336679;22;20077;-74
2022/07/01 05:37:34;;;;;;;4.47;2.70;;;14.60;82.30;;;;;;6336349;22;20073;-74
2022/07/01 05:40:00;;;;;;;4.22;2.60;;;14.70;82.30;;;;;;6281007;22;20078;-75
2022/07/01 05:42:26;;;;;;;3.85;2.45;;;14.70;82.20;;;;;;6309377;22;20022;-75
2022/07/01 05:44:52;;;;;;;3.78;2.15;;;14.70;82.20;;;;;;6336622;22;20450;-74
2022/07/01 05:47:17;;;;;;;4.10;2.30;;;14.70;82.10;;;;;;6336335;22;20056;-74
2022/07/01 05:49:43;;;;;;;6.13;2.85;;;14.80;82.20;;;;;;6305386;22;20007;-75
2022/07/01 05:52:09;;;;;;;5.10;2.97;;;14.70;82.00;;;;;;6307351;22;20054;-75
2022/07/01 05:54:36;;;;;;;4.88;2.90;;;14.80;82.10;;;;;;6309180;22;20014;-75
2022/07/01 05:57:02;;;;;;;4.45;2.55;;;14.70;82.10;;;;;;6336660;22;20061;-75
2022/07/01 05:59:27;;;;;;;4.05;2.70;;;14.80;82.10;;;;;;6308470;22;20018;-75
2022/07/01 06:01:53;;;;;;;4.53;2.63;;;14.70;82.00;;;;;;6336866;22;20065;-75
2022/07/01 06:04:19;;;;;;;5.32;3.00;;;14.80;82.00;;;;;;6336367;22;20007;-75
2022/07/01 06:06:45;;;;;;;5.07;2.65;;;14.80;82.00;;;;;;6308749;22;20007;-74
2022/07/01 06:09:10;;;;;;;4.60;2.78;;;14.90;82.00;;;;;;6309809;22;20635;-74
2022/07/01 06:11:36;;;;;;;4.38;2.60;;;15.00;82.00;;;;;;6336293;22;20332;-75
2022/07/01 06:14:02;;;;;;;5.60;3.00;;;14.90;81.90;;;;;;6283174;22;20007;-74
2022/07/01 06:16:27;;;;;;;4.13;2.55;;;14.90;81.90;;;;;;6308083;22;20011;-74
2022/07/01 06:18:53;;;;;;;3.85;2.40;;;15.00;81.90;;;;;;6336020;22;20038;-75
2022/07/01 06:21:19;;;;;;;4.40;2.72;;;15.00;81.80;;;;;;6283773;22;20018;-75
2022/07/01 06:23:45;;;;;;;4.13;2.58;;;15.00;81.70;;;;;;6336491;22;20461;-75
2022/07/01 06:26:11;;;;;;;4.00;2.47;;;15.00;81.70;;;;;;6335978;22;20041;-75
2022/07/01 06:28:37;;;;;;;4.25;2.70;;;15.00;81.70;;;;;;6309496;22;20006;-75
2022/07/01 06:31:03;;;;;;;4.03;2.60;;;15.00;81.80;;;;;;6336174;22;20006;-75
2022/07/01 06:33:30;;;;;;;4.65;2.85;;;15.00;81.70;;;;;;6336385;22;20079;-75
2022/07/01 06:35:57;;;;;;;4.28;2.60;;;15.10;81.70;;;;;;6336769;22;20002;-75
2022/07/01 06:38:23;;;;;;;4.90;3.05;;;15.20;81.60;;;;;;6308819;22;20064;-75
2022/07/01 06:43:30;;;;;;;4.22;2.65;;;15.10;81.30;;;;;;6335973;22;20023;-75
2022/07/01 06:45:55;;;;;;;3.92;2.53;;;15.20;81.40;;;;;;6336126;22;20019;-75
2022/07/01 06:48:21;;;;;;;4.75;2.83;;;15.20;81.40;;;;;;6337025;22;20434;-75
2022/07/01 06:50:47;;;;;;;4.90;3.00;;;15.30;81.40;;;;;;6335702;22;20326;-75
2022/07/01 06:53:12;;;;;;;5.30;3.03;;;15.30;81.30;;;;;;6336046;22;20011;-75
2022/07/01 06:55:38;;;;;;;5.25;2.90;;;15.30;81.30;;;;;;6336487;22;20014;-75
2022/07/01 06:58:05;;;;;;;4.57;2.53;;;15.40;81.30;;;;;;6336333;22;20502;-74
2022/07/01 07:00:31;;;;;;;4.70;3.30;;;15.40;81.20;;;;;;6336234;22;20018;-75
2022/07/01 07:02:56;;;;;;;5.57;3.13;;;15.40;81.10;;;;;;6335891;22;20007;-77
2022/07/01 07:05:22;;;;;;;4.55;2.78;;;15.40;81.10;;;;;;6303258;22;20014;-75
2022/07/01 07:07:47;;;;;;;5.15;3.20;;;15.30;81.20;;;;;;6336144;22;20011;-76
2022/07/01 07:10:13;;;;;;;4.97;2.95;;;15.40;81.50;;;;;;6335804;22;20006;-75
2022/07/01 07:12:39;;;;;;;4.50;2.80;;;15.50;81.50;;;;;;6308618;22;20006;-74
2022/07/01 07:15:05;;;;;;;4.00;2.60;;;15.70;81.60;;;;;;6336231;22;20027;-75
2022/07/01 07:17:31;;;;;;;5.13;3.10;;;16.00;80.80;;;;;;6308503;22;20132;-75
2022/07/01 07:19:56;;;;;;;4.13;2.70;;;16.10;80.10;;;;;;6335812;22;20041;-74
2022/07/01 07:22:23;;;;;;;5.30;3.28;;;16.30;79.70;;;;;;6336561;22;20022;-75
2022/07/01 07:24:49;;;;;;;5.25;3.33;;;16.40;79.30;;;;;;6308360;22;20006;-75
2022/07/01 07:27:15;;;;;;;5.45;3.47;;;16.50;79.30;;;;;;6336672;22;19995;-75
2022/07/01 07:29:40;;;;;;;5.60;3.42;;;16.70;79.10;;;;;;6281337;22;20010;-75
2022/07/01 07:32:06;;;;;;;6.10;4.15;;;16.90;78.80;;;;;;6336072;22;20141;-75
2022/07/01 07:34:32;;;;;;;6.13;3.70;;;17.00;78.70;;;;;;6336241;22;20047;-75
2022/07/01 07:36:58;;;;;;;5.18;3.47;;;17.00;78.50;;;;;;6336065;22;20006;-74
2022/07/01 07:39:23;;;;;;;5.80;3.72;;;17.00;78.50;;;;;;6255947;22;20003;-73
2022/07/01 07:41:49;;;;;;;4.95;3.13;;;17.20;78.60;;;;;;6308816;22;20443;-74
2022/07/01 07:44:15;;;;;;;4.40;2.90;;;17.20;78.50;;;;;;6337480;22;20007;-73
2022/07/01 07:46:41;;;;;;;5.57;3.75;;;17.30;78.40;;;;;;6336430;22;20369;-75
2022/07/01 07:49:06;;;;;;;6.13;3.78;;;17.40;78.00;;;;;;6339493;22;20506;-75
2022/07/01 07:51:32;;;;;;;5.35;3.33;;;17.40;78.30;;;;;;6336426;22;20015;-74
2022/07/01 07:53:58;;;;;;;5.00;3.05;;;17.60;78.20;;;;;;6339924;22;20007;-75
2022/07/01 07:56:23;;;;;;;4.32;2.95;;;17.70;77.70;;;;;;6341591;22;20007;-76
2022/07/01 07:58:49;;;;;;;4.60;3.20;;;17.80;77.60;;;;;;6341280;22;20928;-76
2022/07/01 08:01:15;;;;;;;4.22;2.83;;;17.80;77.40;;;;;;6339408;22;20006;-76
2022/07/01 08:03:41;;;;;;;3.97;2.42;;;17.80;77.50;;;;;;6336930;22;20549;-76
2022/07/01 08:06:09;;;;;;;4.00;2.55;;;17.80;77.80;;;;;;6308767;22;20019;-76
2022/07/01 08:08:34;;;;;;;3.55;2.15;;;17.80;77.90;;;;;;6335949;22;20010;-76
2022/07/01 08:11:00;;;;;;;4.28;2.50;;;18.00;78.00;;;;;;6341122;22;20312;-76
2022/07/01 08:13:26;;;;;;;4.07;2.40;;;18.10;77.60;;;;;;6338006;22;20363;-76
2022/07/01 08:15:52;;;;;;;3.88;2.60;;;18.30;77.20;;;;;;6339733;22;20048;-76
2022/07/01 08:18:18;;;;;;;2.80;1.92;;;18.40;77.00;;;;;;6339048;22;20304;-75
2022/07/01 08:20:45;;;;;;;4.45;2.42;;;18.60;76.80;;;;;;6283991;22;20063;-74
2022/07/01 08:23:11;;;;;;;3.83;2.15;;;18.70;76.30;;;;;;6336748;22;20430;-76
2022/07/01 08:25:37;;;;;;;2.55;1.90;;;18.80;76.10;;;;;;6309864;22;20011;-74
2022/07/01 08:28:04;;;;;;;3.60;1.98;;;18.90;76.20;;;;;;6337857;22;20472;-75
2022/07/01 08:30:29;;;;;;;3.15;2.10;;;18.90;76.20;;;;;;6338221;22;20138;-74
2022/07/01 08:32:55;;;;;;;2.97;1.95;;;19.00;76.30;;;;;;6341879;22;20005;-76
2022/07/01 08:35:21;;;;;;;3.38;1.92;;;19.00;76.20;;;;;;6338339;22;20034;-73
2022/07/01 08:37:47;;;;;;;2.45;1.80;;;19.10;76.10;;;;;;6310759;22;20376;-76
2022/07/01 08:40:13;;;;;;;1.88;1.60;;;19.10;76.00;;;;;;6315112;22;20002;-77
2022/07/01 08:42:39;;;;;;;2.40;1.70;;;19.10;75.90;;;;;;6344421;22;20069;-74
2022/07/01 08:45:07;;;;;;;2.38;1.40;;;19.40;75.60;;;;;;6313410;22;20003;-74
2022/07/01 08:47:33;;;;;;;2.90;1.60;;;19.50;75.30;;;;;;6343074;22;20006;-75
2022/07/01 08:50:02;;;;;;;1.63;1.10;;;19.60;75.00;;;;;;6346737;22;20098;-75
2022/07/01 08:52:29;;;;;;;1.88;1.00;;;19.70;74.70;;;;;;6264704;22;20053;-74
2022/07/01 08:54:54;;;;;;;1.77;1.10;;;19.90;75.20;;;;;;6341603;22;20007;-73
2022/07/01 08:57:21;;;;;;;0.75;0.60;;;20.00;74.20;;;;;;6341653;22;20394;-75
2022/07/01 09:00:01;;;;;;;1.38;0.93;;;20.10;74.10;;;;;;6348025;22;20009;-75
2022/07/01 09:02:27;;;;;;;2.15;0.90;;;20.10;73.70;;;;;;6313214;22;19995;-75
2022/07/01 09:05:10;;;;;;;1.40;1.10;;;20.10;73.70;;;;;;6340040;22;20048;-74
2022/07/01 09:07:36;;;;;;;1.65;1.00;;;20.20;73.70;;;;;;6307177;22;20057;-74
2022/07/01 09:10:14;;;;;;;0.65;0.65;;;20.30;73.60;;;;;;6338068;22;20365;-74
2022/07/01 09:12:40;;;;;;;0.80;0.80;;;20.30;73.40;;;;;;6312412;22;20009;-75
2022/07/01 09:15:27;;;;;;;0.93;0.50;;;20.20;73.40;;;;;;6337646;22;20059;-73
2022/07/01 09:18:11;;;;;;;0.70;0.70;;;20.10;73.30;;;;;;6309651;22;20043;-74
2022/07/01 09:20:41;;;;;;;0.70;0.70;;;20.20;73.50;;;;;;6338077;22;20011;-73
2022/07/01 09:23:11;;;;;;;0.75;0.73;;;20.30;73.10;;;;;;6336666;22;20435;-75
2022/07/01 09:25:42;;;;;;;0.93;0.73;;;20.30;73.10;;;;;;6336650;22;20011;-74
2022/07/01 09:28:13;;;;;;;2.10;0.65;;;20.20;72.90;;;;;;6284989;22;20010;-75
2022/07/01 09:30:42;;;;;;;0.50;0.50;;;20.30;72.80;;;;;;6337807;22;20006;-74
2022/07/01 09:33:10;;;;;;;0.65;0.50;;;20.30;72.70;;;;;;6337318;22;20039;-74
2022/07/01 09:35:36;;;;;;;0.95;0.60;;;20.40;72.40;;;;;;6338341;22;20040;-76
2022/07/01 09:38:03;;;;;;;0.70;0.60;;;20.50;72.00;;;;;;6257637;22;19999;-75
2022/07/01 09:40:54;;;;;;;0.57;0.57;;;20.60;71.90;;;;;;6309868;22;20006;-74
2022/07/01 09:43:22;;;;;;;1.10;0.60;;;20.60;71.50;;;;;;6336614;22;20014;-74
2022/07/01 09:45:49;;;;;;;0.88;0.60;;;20.60;71.50;;;;;;6341525;22;20002;-75
2022/07/01 09:48:15;;;;;;;0.50;0.50;;;20.80;71.40;;;;;;6342910;22;20014;-76
2022/07/01 09:50:41;;;;;;;1.70;0.80;;;21.00;71.00;;;;;;6344724;22;20014;-74
2022/07/01 09:53:07;;;;;;;0.80;0.50;;;21.30;70.30;;;;;;6308737;22;20339;-76
2022/07/01 09:55:34;;;;;;;0.77;0.60;;;21.30;69.80;;;;;;6312468;22;20326;-73
2022/07/01 09:58:00;;;;;;;0.68;0.60;;;21.10;69.60;;;;;;6336693;22;20492;-75
2022/07/01 10:00:29;;;;;;;0.60;0.60;;;21.00;70.10;;;;;;6337458;22;20002;-74
2022/07/01 10:02:56;;;;;;;0.32;0.32;;;20.70;70.40;;;;;;6285799;22;20025;-74
2022/07/01 10:05:24;;;;;;;0.57;0.57;;;20.80;70.60;;;;;;6337775;22;19999;-74
2022/07/01 10:08:20;;;;;;;0.40;0.40;;;20.60;70.60;;;;;;6309864;22;20013;-74
2022/07/01 10:11:10;;;;;;;0.47;0.47;;;20.60;70.80;;;;;;6336591;22;20006;-74
2022/07/01 10:13:36;;;;;;;0.55;0.50;;;20.70;70.60;;;;;;6315824;22;20007;-74
2022/07/01 10:16:03;;;;;;;0.40;0.40;;;20.90;70.10;;;;;;6339972;22;20009;-74
2022/07/01 10:18:29;;;;;;;1.20;0.50;;;20.90;69.80;;;;;;6339650;22;20514;-75
2022/07/01 10:20:57;;;;;;;0.75;0.47;;;20.80;69.70;;;;;;6340122;22;20010;-75
2022/07/01 10:23:24;;;;;;;0.40;0.40;;;20.90;69.50;;;;;;6340793;22;20033;-75
2022/07/01 10:25:52;;;;;;;0.40;0.40;;;21.00;69.20;;;;;;6341328;22;20011;-74
2022/07/01 10:28:27;;;;;;;1.02;0.60;;;21.20;68.80;;;;;;6338893;22;20003;-74
2022/07/01 10:31:02;;;;;;;0.93;0.40;;;21.30;68.20;;;;;;6339903;22;20006;-74
2022/07/01 10:33:35;;;;;;;0.93;0.50;;;21.30;67.90;;;;;;6306536;22;20008;-74
2022/07/01 10:36:26;;;;;;;0.35;0.35;;;21.10;68.00;;;;;;6334602;22;20003;-74
2022/07/01 10:39:10;;;;;;;0.35;0.35;;;20.90;68.80;;;;;;6340766;22;20038;-74
2022/07/01 10:41:42;;;;;;;0.70;0.40;;;20.90;68.90;;;;;;6337074;22;20042;-74
2022/07/01 10:44:10;;;;;;;0.40;0.40;;;21.10;68.60;;;;;;6339387;22;20097;-74
2022/07/01 10:46:49;;;;;;;1.25;0.68;;;21.30;68.00;;;;;;6288327;22;20007;-75
2022/07/01 10:49:19;;;;;;;0.40;0.40;;;21.40;67.50;;;;;;6343944;22;19999;-75
2022/07/01 10:51:55;;;;;;;0.30;0.22;;;21.40;67.30;;;;;;6339619;22;20010;-74
2022/07/01 10:54:45;;;;;;;0.65;0.45;;;21.40;67.30;;;;;;6336897;22;20068;-74
2022/07/01 10:57:31;;;;;;;0.60;0.60;;;21.50;67.40;;;;;;6312390;22;20078;-74
2022/07/01 11:00:29;;;;;;;0.52;0.50;;;21.70;67.00;;;;;;6340549;22;20059;-75
2022/07/01 11:02:55;;;;;;;0.65;0.60;;;21.70;66.50;;;;;;6290365;22;20018;-73
2022/07/01 11:05:22;;;;;;;1.73;0.68;;;21.80;66.30;;;;;;6336850;22;20135;-73
2022/07/01 11:07:48;;;;;;;0.55;0.47;;;21.80;66.00;;;;;;6306513;22;20461;-74
2022/07/01 11:10:16;;;;;;;0.55;0.45;;;21.70;66.00;;;;;;6310042;22;20018;-73
2022/07/01 11:12:44;;;;;;;0.70;0.40;;;21.70;66.20;;;;;;6338554;22;20038;-74
2022/07/01 11:15:11;;;;;;;0.50;0.50;;;21.70;66.30;;;;;;6314820;22;20018;-74
2022/07/01 11:17:43;;;;;;;0.40;0.40;;;21.80;66.30;;;;;;6315561;22;20064;-76
2022/07/01 11:20:09;;;;;;;0.63;0.50;;;21.90;66.00;;;;;;6316772;22;20010;-76
2022/07/01 11:22:35;;;;;;;0.93;0.52;;;21.90;65.50;;;;;;6352658;22;20081;-76
2022/07/01 11:25:04;;;;;;;0.68;0.43;;;21.70;65.70;;;;;;6321865;22;20033;-75
2022/07/01 11:27:31;;;;;;;0.30;0.30;;;21.60;65.80;;;;;;6355492;22;20042;-75
2022/07/01 11:30:00;;;;;;;0.95;0.55;;;21.50;66.20;;;;;;6355137;22;19987;-77
2022/07/01 11:32:27;;;;;;;0.47;0.30;;;21.60;66.30;;;;;;6326813;22;20002;-76
2022/07/01 11:34:54;;;;;;;0.45;0.43;;;21.70;66.00;;;;;;6353401;22;20308;-74
2022/07/01 11:40:15;;;;;;;0.40;0.40;;;21.90;65.20;;;;;;6346097;22;20014;-76
2022/07/01 11:42:42;;;;;;;0.40;0.40;;;21.70;65.00;;;;;;6351309;22;20003;-76
2022/07/01 11:45:08;;;;;;;0.30;0.30;;;21.50;65.30;;;;;;6322675;22;20003;-76
2022/07/01 11:47:34;;;;;;;0.73;0.50;;;21.40;65.90;;;;;;6351669;22;20010;-74
2022/07/01 11:50:00;;;;;;;0.43;0.38;;;21.30;65.90;;;;;;6321152;22;20086;-75
2022/07/01 11:52:27;;;;;;;0.63;0.45;;;21.40;65.40;;;;;;6354335;22;20014;-76
2022/07/01 11:54:57;;;;;;;0.52;0.40;;;21.60;65.40;;;;;;6351888;22;20058;-75
2022/07/01 11:57:26;;;;;;;1.20;0.20;;;21.60;65.20;;;;;;6352747;22;20011;-77
2022/07/01 11:59:55;;;;;;;0.38;0.38;;;21.70;65.00;;;;;;6343616;22;20499;-75
2022/07/01 12:02:22;;;;;;;0.40;0.40;;;21.70;65.00;;;;;;6318887;22;20011;-77
2022/07/01 12:04:49;;;;;;;1.27;0.50;;;21.90;64.40;;;;;;6347204;22;20003;-75
2022/07/01 12:07:16;;;;;;;0.30;0.30;;;21.80;64.00;;;;;;6325865;22;20093;-76
2022/07/01 12:09:42;;;;;;;0.30;0.30;;;21.80;64.00;;;;;;6323682;22;20006;-76
2022/07/01 12:12:17;;;;;;;0.40;0.40;;;21.90;63.80;;;;;;6346507;22;20064;-75
2022/07/01 12:14:52;;;;;;;0.55;0.50;;;22.00;63.70;;;;;;6351951;22;20046;-76
2022/07/01 12:17:19;;;;;;;0.40;0.40;;;21.90;63.70;;;;;;6355091;22;20033;-78
2022/07/01 12:19:47;;;;;;;0.43;0.30;;;22.00;63.90;;;;;;6323769;22;20002;-75
2022/07/01 12:22:24;;;;;;;0.50;0.50;;;21.90;63.70;;;;;;6327713;22;20018;-77
2022/07/01 12:24:52;;;;;;;0.35;0.35;;;22.00;63.50;;;;;;6349562;22;20011;-75
2022/07/01 12:27:20;;;;;;;1.83;0.60;;;22.00;63.30;;;;;;6317631;22;20022;-74
2022/07/01 12:29:53;;;;;;;0.40;0.40;;;22.00;62.90;;;;;;6294046;22;20025;-76
2022/07/01 12:32:23;;;;;;;0.40;0.40;;;22.00;62.90;;;;;;6353827;22;20015;-76
2022/07/01 12:35:01;;;;;;;0.73;0.40;;;22.00;62.90;;;;;;6354018;22;19999;-76
2022/07/01 12:37:31;;;;;;;0.40;0.40;;;22.00;62.90;;;;;;6353069;22;20058;-74
2022/07/01 12:40:02;;;;;;;0.40;0.40;;;22.10;62.70;;;;;;6339064;22;19995;-76
2022/07/01 12:42:33;;;;;;;0.60;0.50;;;22.20;62.40;;;;;;6284580;22;19995;-75
2022/07/01 12:45:05;;;;;;;0.55;0.50;;;22.10;62.30;;;;;;6344899;22;20062;-77
2022/07/01 12:47:35;;;;;;;0.68;0.50;;;22.00;62.60;;;;;;6340905;22;20010;-75
2022/07/01 12:50:22;;;;;;;1.58;0.40;;;21.80;63.10;;;;;;6315544;22;20084;-78
2022/07/01 12:53:02;;;;;;;0.80;0.45;;;21.70;63.30;;;;;;6342335;22;20031;-78
2022/07/01 12:55:35;;;;;;;0.40;0.40;;;21.80;63.10;;;;;;6308085;22;20008;-77
2022/07/01 12:58:03;;;;;;;0.30;0.30;;;21.80;62.80;;;;;;6337541;22;20007;-74
2022/07/01 13:00:30;;;;;;;0.50;0.50;;;21.90;62.60;;;;;;6312567;22;20022;-78
2022/07/01 13:03:01;;;;;;;0.95;0.45;;;22.00;62.40;;;;;;6292539;22;20003;-77
2022/07/01 13:05:28;;;;;;;0.50;0.50;;;22.10;61.90;;;;;;6349004;22;20006;-77
2022/07/01 13:07:54;;;;;;;0.63;0.47;;;21.90;62.00;;;;;;6353886;22;20011;-76
2022/07/01 13:10:20;;;;;;;0.38;0.38;;;21.90;62.10;;;;;;6354293;22;20010;-77